sensor_id;sensor_type;location;lat;lon;timestamp;pressure;altitude;pressure_sealevel;temperature;humidity
49979;BME280;35869;50.990;6.962;2023-05-08T00:03:41;101658.53;;;16.19;95.12
49979;BME280;35869;50.990;6.962;2023-05-08T00:08:41;101663.84;;;16.18;96.35
49979;BME280;35869;50.990;6.962;2023-05-08T00:13:41;101671.88;;;16.15;94.99
49979;BME280;35869;50.990;6.962;2023-05-08T00:18:42;101668.56;;;16.11;95.81
49979;BME280;35869;50.990;6.962;2023-05-08T00:23:42;101666.03;;;16.10;95.24
49979;BME280;35869;50.990;6.962;2023-05-08T00:28:42;101667.13;;;16.06;95.28
49979;BME280;35869;50.990;6.962;2023-05-08T00:33:42;101666.25;;;16.05;94.94
49979;BME280;35869;50.990;6.962;2023-05-08T00:38:42;101670.00;;;16.01;94.57
49979;BME280;35869;50.990;6.962;2023-05-08T00:43:43;101670.13;;;15.98;94.25
49979;BME280;35869;50.990;6.962;2023-05-08T00:48:43;101677.25;;;15.96;95.25
49979;BME280;35869;50.990;6.962;2023-05-08T00:53:44;101678.22;;;15.93;96.28
49979;BME280;35869;50.990;6.962;2023-05-08T00:58:45;101683.66;;;15.90;96.72
49979;BME280;35869;50.990;6.962;2023-05-08T01:03:46;101684.72;;;15.86;95.25
49979;BME280;35869;50.990;6.962;2023-05-08T01:08:46;101680.50;;;15.84;94.97
49979;BME280;35869;50.990;6.962;2023-05-08T01:19:00;101683.25;;;15.81;97.33
49979;BME280;35869;50.990;6.962;2023-05-08T01:24:23;101687.81;;;15.77;98.56
49979;BME280;35869;50.990;6.962;2023-05-08T01:40:28;101689.97;;;15.69;100.00
49979;BME280;35869;50.990;6.962;2023-05-08T01:45:36;101691.97;;;15.64;98.95
49979;BME280;35869;50.990;6.962;2023-05-08T01:50:42;101691.91;;;15.65;100.00
49979;BME280;35869;50.990;6.962;2023-05-08T01:55:46;101700.81;;;15.61;99.96
49979;BME280;35869;50.990;6.962;2023-05-08T02:00:47;101705.34;;;15.58;100.00
49979;BME280;35869;50.990;6.962;2023-05-08T02:05:50;101707.28;;;15.54;99.47
49979;BME280;35869;50.990;6.962;2023-05-08T02:10:51;101708.19;;;15.53;100.00
49979;BME280;35869;50.990;6.962;2023-05-08T02:15:53;101716.28;;;15.49;100.00
49979;BME280;35869;50.990;6.962;2023-05-08T02:20:55;101712.19;;;15.43;100.00
49979;BME280;35869;50.990;6.962;2023-05-08T02:25:56;101713.19;;;15.40;100.00
49979;BME280;35869;50.990;6.962;2023-05-08T02:30:57;101716.81;;;15.38;100.00
49979;BME280;35869;50.990;6.962;2023-05-08T02:36:00;101722.97;;;15.37;99.56
49979;BME280;35869;50.990;6.962;2023-05-08T02:41:02;101725.81;;;15.32;100.00
49979;BME280;35869;50.990;6.962;2023-05-08T02:51:24;101731.34;;;15.26;99.94
49979;BME280;35869;50.990;6.962;2023-05-08T02:56:51;101727.94;;;15.24;100.00
49979;BME280;35869;50.990;6.962;2023-05-08T03:02:14;101720.25;;;15.21;100.00
49979;BME280;35869;50.990;6.962;2023-05-08T03:07:18;101722.94;;;15.19;100.00
49979;BME280;35869;50.990;6.962;2023-05-08T03:12:22;101722.38;;;15.13;100.00
49979;BME280;35869;50.990;6.962;2023-05-08T03:17:27;101720.66;;;15.12;100.00
49979;BME280;35869;50.990;6.962;2023-05-08T03:22:31;101723.44;;;15.09;100.00
49979;BME280;35869;50.990;6.962;2023-05-08T03:27:34;101724.50;;;15.05;100.00
49979;BME280;35869;50.990;6.962;2023-05-08T03:32:35;101724.56;;;15.03;100.00
49979;BME280;35869;50.990;6.962;2023-05-08T03:37:35;101714.94;;;15.04;100.00
49979;BME280;35869;50.990;6.962;2023-05-08T03:42:37;101721.25;;;15.00;100.00
49979;BME280;35869;50.990;6.962;2023-05-08T03:47:39;101721.41;;;14.97;100.00
49979;BME280;35869;50.990;6.962;2023-05-08T03:52:39;101715.22;;;14.98;100.00
49979;BME280;35869;50.990;6.962;2023-05-08T03:57:44;101704.06;;;14.94;100.00
49979;BME280;35869;50.990;6.962;2023-05-08T04:02:52;101709.53;;;14.89;100.00
49979;BME280;35869;50.990;6.962;2023-05-08T04:08:02;101706.94;;;14.88;100.00
49979;BME280;35869;50.990;6.962;2023-05-08T04:13:08;101714.75;;;14.89;100.00
49979;BME280;35869;50.990;6.962;2023-05-08T04:18:13;101716.72;;;14.84;100.00
49979;BME280;35869;50.990;6.962;2023-05-08T04:23:17;101716.84;;;14.81;100.00
49979;BME280;35869;50.990;6.962;2023-05-08T04:28:19;101721.31;;;14.79;100.00
49979;BME280;35869;50.990;6.962;2023-05-08T04:33:20;101720.53;;;14.77;100.00
49979;BME280;35869;50.990;6.962;2023-05-08T04:38:20;101729.47;;;14.73;100.00
49979;BME280;35869;50.990;6.962;2023-05-08T04:43:21;101735.63;;;14.72;100.00
49979;BME280;35869;50.990;6.962;2023-05-08T04:48:24;101742.66;;;14.70;100.00
49979;BME280;35869;50.990;6.962;2023-05-08T04:53:24;101737.50;;;14.69;100.00
49979;BME280;35869;50.990;6.962;2023-05-08T04:58:24;101741.91;;;14.68;100.00
49979;BME280;35869;50.990;6.962;2023-05-08T05:03:25;101748.09;;;14.65;100.00
49979;BME280;35869;50.990;6.962;2023-05-08T05:08:25;101749.09;;;14.63;100.00
49979;BME280;35869;50.990;6.962;2023-05-08T05:13:25;101748.97;;;14.66;100.00
49979;BME280;35869;50.990;6.962;2023-05-08T05:18:26;101757.72;;;14.65;100.00
49979;BME280;35869;50.990;6.962;2023-05-08T05:23:26;101760.28;;;14.66;100.00
49979;BME280;35869;50.990;6.962;2023-05-08T05:28:26;101762.84;;;14.68;100.00
49979;BME280;35869;50.990;6.962;2023-05-08T05:33:26;101770.97;;;14.62;100.00
49979;BME280;35869;50.990;6.962;2023-05-08T05:38:26;101767.50;;;14.61;100.00
49979;BME280;35869;50.990;6.962;2023-05-08T05:43:27;101776.19;;;14.62;100.00
49979;BME280;35869;50.990;6.962;2023-05-08T05:48:27;101782.34;;;14.61;100.00
49979;BME280;35869;50.990;6.962;2023-05-08T05:53:27;101788.16;;;14.68;100.00
49979;BME280;35869;50.990;6.962;2023-05-08T05:58:27;101786.50;;;14.65;100.00
49979;BME280;35869;50.990;6.962;2023-05-08T06:03:28;101784.53;;;14.70;100.00
49979;BME280;35869;50.990;6.962;2023-05-08T06:08:28;101788.72;;;14.74;100.00
49979;BME280;35869;50.990;6.962;2023-05-08T06:13:28;101792.97;;;14.77;100.00
49979;BME280;35869;50.990;6.962;2023-05-08T06:18:28;101790.78;;;14.86;100.00
49979;BME280;35869;50.990;6.962;2023-05-08T06:23:29;101795.75;;;14.92;100.00
49979;BME280;35869;50.990;6.962;2023-05-08T06:28:29;101800.22;;;14.90;100.00
49979;BME280;35869;50.990;6.962;2023-05-08T06:33:29;101796.66;;;14.91;100.00
49979;BME280;35869;50.990;6.962;2023-05-08T06:38:29;101799.84;;;14.98;100.00
49979;BME280;35869;50.990;6.962;2023-05-08T06:43:29;101796.13;;;15.04;100.00
49979;BME280;35869;50.990;6.962;2023-05-08T06:48:30;101802.84;;;15.09;100.00
49979;BME280;35869;50.990;6.962;2023-05-08T06:53:30;101796.56;;;15.13;100.00
49979;BME280;35869;50.990;6.962;2023-05-08T06:58:30;101800.22;;;15.09;100.00
49979;BME280;35869;50.990;6.962;2023-05-08T07:03:31;101795.81;;;15.10;100.00
49979;BME280;35869;50.990;6.962;2023-05-08T07:08:31;101784.16;;;15.17;100.00
49979;BME280;35869;50.990;6.962;2023-05-08T07:13:31;101791.88;;;15.20;100.00
49979;BME280;35869;50.990;6.962;2023-05-08T07:18:31;101794.50;;;15.20;100.00
49979;BME280;35869;50.990;6.962;2023-05-08T07:23:31;101810.97;;;15.22;100.00
49979;BME280;35869;50.990;6.962;2023-05-08T07:28:32;101814.38;;;15.24;100.00
49979;BME280;35869;50.990;6.962;2023-05-08T07:33:32;101811.97;;;15.38;100.00
49979;BME280;35869;50.990;6.962;2023-05-08T07:38:32;101813.53;;;15.42;100.00
49979;BME280;35869;50.990;6.962;2023-05-08T07:43:32;101817.56;;;15.50;100.00
49979;BME280;35869;50.990;6.962;2023-05-08T07:48:32;101817.03;;;15.60;100.00
49979;BME280;35869;50.990;6.962;2023-05-08T07:53:33;101821.19;;;15.66;100.00
49979;BME280;35869;50.990;6.962;2023-05-08T07:58:33;101827.66;;;15.76;100.00
49979;BME280;35869;50.990;6.962;2023-05-08T08:03:33;101828.31;;;15.98;100.00
49979;BME280;35869;50.990;6.962;2023-05-08T08:08:33;101833.13;;;16.08;100.00
49979;BME280;35869;50.990;6.962;2023-05-08T08:13:35;101824.41;;;16.24;100.00
49979;BME280;35869;50.990;6.962;2023-05-08T08:18:35;101823.84;;;16.35;100.00
49979;BME280;35869;50.990;6.962;2023-05-08T08:23:36;101826.78;;;16.46;100.00
49979;BME280;35869;50.990;6.962;2023-05-08T08:28:36;101826.84;;;16.62;100.00
49979;BME280;35869;50.990;6.962;2023-05-08T08:33:36;101820.41;;;16.85;98.70
49979;BME280;35869;50.990;6.962;2023-05-08T08:38:37;101811.72;;;17.00;98.94
49979;BME280;35869;50.990;6.962;2023-05-08T08:43:42;101814.03;;;17.38;100.00
49979;BME280;35869;50.990;6.962;2023-05-08T08:48:44;101808.78;;;17.38;98.50
49979;BME280;35869;50.990;6.962;2023-05-08T08:53:48;101809.19;;;17.46;96.87
49979;BME280;35869;50.990;6.962;2023-05-08T08:58:54;101808.16;;;17.65;96.99
49979;BME280;35869;50.990;6.962;2023-05-08T09:03:57;101809.03;;;17.65;96.74
49979;BME280;35869;50.990;6.962;2023-05-08T09:08:57;101820.09;;;17.70;95.99
49979;BME280;35869;50.990;6.962;2023-05-08T09:13:58;101822.94;;;17.83;97.06
49979;BME280;35869;50.990;6.962;2023-05-08T09:18:58;101825.28;;;17.88;95.55
49979;BME280;35869;50.990;6.962;2023-05-08T09:24:00;101825.81;;;17.78;97.04
49979;BME280;35869;50.990;6.962;2023-05-08T09:29:08;101823.28;;;17.77;97.94
49979;BME280;35869;50.990;6.962;2023-05-08T09:34:21;101817.09;;;17.78;98.19
49979;BME280;35869;50.990;6.962;2023-05-08T09:39:23;101820.47;;;17.80;98.08
49979;BME280;35869;50.990;6.962;2023-05-08T09:44:23;101829.91;;;17.84;97.78
49979;BME280;35869;50.990;6.962;2023-05-08T09:49:24;101827.16;;;17.85;97.76
49979;BME280;35869;50.990;6.962;2023-05-08T09:54:24;101832.91;;;17.92;96.62
49979;BME280;35869;50.990;6.962;2023-05-08T09:59:26;101828.94;;;17.85;97.89
49979;BME280;35869;50.990;6.962;2023-05-08T10:04:34;101825.56;;;17.83;98.23
49979;BME280;35869;50.990;6.962;2023-05-08T10:09:35;101826.31;;;17.85;98.22
49979;BME280;35869;50.990;6.962;2023-05-08T10:14:35;101821.47;;;17.93;96.66
49979;BME280;35869;50.990;6.962;2023-05-08T10:19:38;101825.38;;;17.86;97.41
49979;BME280;35869;50.990;6.962;2023-05-08T10:24:45;101819.78;;;17.92;97.73
49979;BME280;35869;50.990;6.962;2023-05-08T10:30:29;101814.25;;;17.97;97.29
49979;BME280;35869;50.990;6.962;2023-05-08T10:35:33;101802.03;;;17.96;98.23
49979;BME280;35869;50.990;6.962;2023-05-08T10:47:15;101797.44;;;17.99;98.38
49979;BME280;35869;50.990;6.962;2023-05-08T10:52:06;101794.00;;;18.13;96.23
49979;BME280;35869;50.990;6.962;2023-05-08T10:57:09;101800.47;;;18.07;96.90
49979;BME280;35869;50.990;6.962;2023-05-08T11:02:10;101803.59;;;18.14;96.58
49979;BME280;35869;50.990;6.962;2023-05-08T11:07:10;101805.13;;;18.18;96.07
49979;BME280;35869;50.990;6.962;2023-05-08T11:12:22;101808.66;;;18.17;96.76
49979;BME280;35869;50.990;6.962;2023-05-08T11:17:24;101806.13;;;18.16;97.55
49979;BME280;35869;50.990;6.962;2023-05-08T11:22:34;101800.50;;;18.22;96.61
49979;BME280;35869;50.990;6.962;2023-05-08T11:32:58;101799.91;;;18.17;97.28
49979;BME280;35869;50.990;6.962;2023-05-08T11:38:37;101790.53;;;18.13;97.61
49979;BME280;35869;50.990;6.962;2023-05-08T11:48:58;101783.69;;;18.24;97.24
49979;BME280;35869;50.990;6.962;2023-05-08T11:53:59;101784.75;;;18.36;95.42
49979;BME280;35869;50.990;6.962;2023-05-08T11:59:03;101787.38;;;18.50;95.13
49979;BME280;35869;50.990;6.962;2023-05-08T12:04:12;101795.00;;;18.55;94.17
49979;BME280;35869;50.990;6.962;2023-05-08T12:09:20;101790.88;;;18.65;94.46
49979;BME280;35869;50.990;6.962;2023-05-08T12:14:27;101784.22;;;18.74;95.08
49979;BME280;35869;50.990;6.962;2023-05-08T12:19:54;101789.78;;;18.83;95.73
49979;BME280;35869;50.990;6.962;2023-05-08T12:30:49;101783.38;;;18.87;96.12
49979;BME280;35869;50.990;6.962;2023-05-08T12:35:49;101789.31;;;18.91;95.21
49979;BME280;35869;50.990;6.962;2023-05-08T12:40:50;101778.66;;;19.07;94.46
49979;BME280;35869;50.990;6.962;2023-05-08T12:45:50;101775.00;;;18.95;95.05
49979;BME280;35869;50.990;6.962;2023-05-08T12:50:51;101771.81;;;18.90;94.42
49979;BME280;35869;50.990;6.962;2023-05-08T12:55:53;101768.59;;;18.85;94.55
49979;BME280;35869;50.990;6.962;2023-05-08T13:06:26;101746.69;;;18.70;94.73
49979;BME280;35869;50.990;6.962;2023-05-08T13:11:30;101749.72;;;18.78;93.66
49979;BME280;35869;50.990;6.962;2023-05-08T13:16:41;101746.78;;;18.54;95.17
49979;BME280;35869;50.990;6.962;2023-05-08T13:21:41;101738.09;;;18.52;95.34
49979;BME280;35869;50.990;6.962;2023-05-08T13:26:43;101729.09;;;18.42;95.31
49979;BME280;35869;50.990;6.962;2023-05-08T13:31:43;101724.69;;;18.43;95.98
49979;BME280;35869;50.990;6.962;2023-05-08T13:36:43;101728.16;;;18.43;95.41
49979;BME280;35869;50.990;6.962;2023-05-08T13:41:44;101728.72;;;18.34;95.58
49979;BME280;35869;50.990;6.962;2023-05-08T13:46:44;101726.94;;;18.49;91.23
49979;BME280;35869;50.990;6.962;2023-05-08T13:51:44;101710.84;;;18.39;93.60
49979;BME280;35869;50.990;6.962;2023-05-08T13:56:45;101712.16;;;18.32;95.81
49979;BME280;35869;50.990;6.962;2023-05-08T14:01:48;101709.72;;;18.29;96.27
49979;BME280;35869;50.990;6.962;2023-05-08T14:12:28;101710.75;;;18.41;94.42
49979;BME280;35869;50.990;6.962;2023-05-08T14:17:28;101710.19;;;18.50;92.50
49979;BME280;35869;50.990;6.962;2023-05-08T14:22:28;101703.25;;;18.49;92.37
49979;BME280;35869;50.990;6.962;2023-05-08T14:27:28;101692.06;;;18.59;91.08
49979;BME280;35869;50.990;6.962;2023-05-08T14:32:29;101694.13;;;18.69;90.50
49979;BME280;35869;50.990;6.962;2023-05-08T14:37:29;101699.84;;;18.75;91.63
49979;BME280;35869;50.990;6.962;2023-05-08T14:42:41;101697.19;;;18.89;89.86
49979;BME280;35869;50.990;6.962;2023-05-08T14:47:42;101696.81;;;19.23;88.39
49979;BME280;35869;50.990;6.962;2023-05-08T14:52:42;101692.44;;;19.36;86.74
49979;BME280;35869;50.990;6.962;2023-05-08T14:58:11;101688.16;;;19.48;85.53
49979;BME280;35869;50.990;6.962;2023-05-08T15:03:14;101680.00;;;19.65;85.93
49979;BME280;35869;50.990;6.962;2023-05-08T15:08:14;101676.84;;;19.85;87.09
49979;BME280;35869;50.990;6.962;2023-05-08T15:13:15;101672.84;;;20.05;86.29
49979;BME280;35869;50.990;6.962;2023-05-08T15:18:15;101673.44;;;20.21;85.10
49979;BME280;35869;50.990;6.962;2023-05-08T15:23:15;101669.66;;;20.26;84.73
49979;BME280;35869;50.990;6.962;2023-05-08T15:28:15;101658.16;;;20.52;81.15
49979;BME280;35869;50.990;6.962;2023-05-08T15:33:16;101665.56;;;20.47;83.50
49979;BME280;35869;50.990;6.962;2023-05-08T15:38:16;101667.31;;;20.59;86.01
49979;BME280;35869;50.990;6.962;2023-05-08T15:43:16;101663.72;;;20.60;84.01
49979;BME280;35869;50.990;6.962;2023-05-08T15:48:16;101663.28;;;20.66;86.55
49979;BME280;35869;50.990;6.962;2023-05-08T15:53:16;101655.22;;;20.68;85.49
49979;BME280;35869;50.990;6.962;2023-05-08T15:58:17;101654.63;;;20.64;83.32
49979;BME280;35869;50.990;6.962;2023-05-08T16:03:17;101649.34;;;20.64;87.19
49979;BME280;35869;50.990;6.962;2023-05-08T16:08:17;101652.06;;;20.63;84.94
49979;BME280;35869;50.990;6.962;2023-05-08T16:13:17;101646.50;;;20.55;87.04
49979;BME280;35869;50.990;6.962;2023-05-08T16:18:18;101648.53;;;20.26;90.07
49979;BME280;35869;50.990;6.962;2023-05-08T16:23:18;101640.06;;;20.33;90.24
49979;BME280;35869;50.990;6.962;2023-05-08T16:28:18;101638.72;;;20.40;88.86
49979;BME280;35869;50.990;6.962;2023-05-08T16:33:18;101628.81;;;20.18;89.81
49979;BME280;35869;50.990;6.962;2023-05-08T16:38:19;101622.97;;;20.26;85.81
49979;BME280;35869;50.990;6.962;2023-05-08T16:43:19;101620.88;;;20.31;88.42
49979;BME280;35869;50.990;6.962;2023-05-08T16:48:20;101627.00;;;20.32;86.50
49979;BME280;35869;50.990;6.962;2023-05-08T16:53:20;101607.69;;;20.18;89.63
49979;BME280;35869;50.990;6.962;2023-05-08T16:58:20;101605.56;;;20.11;90.39
49979;BME280;35869;50.990;6.962;2023-05-08T17:03:21;101617.72;;;20.13;88.79
49979;BME280;35869;50.990;6.962;2023-05-08T17:08:21;101613.75;;;19.95;91.11
49979;BME280;35869;50.990;6.962;2023-05-08T17:13:21;101609.91;;;19.99;88.48
49979;BME280;35869;50.990;6.962;2023-05-08T17:18:22;101616.56;;;19.92;90.85
49979;BME280;35869;50.990;6.962;2023-05-08T17:23:22;101629.22;;;19.87;90.69
49979;BME280;35869;50.990;6.962;2023-05-08T17:28:22;101626.72;;;19.85;90.55
49979;BME280;35869;50.990;6.962;2023-05-08T17:33:23;101623.03;;;19.88;87.16
49979;BME280;35869;50.990;6.962;2023-05-08T17:38:23;101637.78;;;19.65;91.34
49979;BME280;35869;50.990;6.962;2023-05-08T17:43:23;101627.13;;;19.66;90.15
49979;BME280;35869;50.990;6.962;2023-05-08T17:48:23;101630.75;;;19.51;91.94
49979;BME280;35869;50.990;6.962;2023-05-08T17:53:23;101630.75;;;19.51;90.91
49979;BME280;35869;50.990;6.962;2023-05-08T17:58:24;101636.88;;;19.52;90.88
49979;BME280;35869;50.990;6.962;2023-05-08T18:03:24;101629.59;;;19.42;88.88
49979;BME280;35869;50.990;6.962;2023-05-08T18:08:24;101635.41;;;19.35;88.04
49979;BME280;35869;50.990;6.962;2023-05-08T18:13:24;101631.69;;;19.25;92.37
49979;BME280;35869;50.990;6.962;2023-05-08T18:18:25;101638.72;;;19.11;92.65
49979;BME280;35869;50.990;6.962;2023-05-08T18:23:25;101641.13;;;19.14;91.68
49979;BME280;35869;50.990;6.962;2023-05-08T18:28:26;101641.63;;;19.07;92.01
49979;BME280;35869;50.990;6.962;2023-05-08T18:33:26;101638.75;;;18.97;92.59
49979;BME280;35869;50.990;6.962;2023-05-08T18:38:26;101635.00;;;18.87;91.01
49979;BME280;35869;50.990;6.962;2023-05-08T18:43:27;101636.25;;;18.81;90.03
49979;BME280;35869;50.990;6.962;2023-05-08T18:48:27;101635.78;;;18.75;93.27
49979;BME280;35869;50.990;6.962;2023-05-08T18:53:27;101633.81;;;18.64;93.88
49979;BME280;35869;50.990;6.962;2023-05-08T18:58:27;101629.63;;;18.47;95.57
49979;BME280;35869;50.990;6.962;2023-05-08T19:03:28;101620.50;;;18.38;95.39
49979;BME280;35869;50.990;6.962;2023-05-08T19:08:28;101625.50;;;18.29;96.08
49979;BME280;35869;50.990;6.962;2023-05-08T19:13:28;101634.91;;;18.19;96.53
49979;BME280;35869;50.990;6.962;2023-05-08T19:18:29;101631.53;;;18.17;95.88
49979;BME280;35869;50.990;6.962;2023-05-08T19:23:29;101631.31;;;18.05;94.09
49979;BME280;35869;50.990;6.962;2023-05-08T19:28:30;101631.53;;;18.02;95.22
49979;BME280;35869;50.990;6.962;2023-05-08T19:33:31;101625.91;;;17.94;95.64
49979;BME280;35869;50.990;6.962;2023-05-08T19:38:32;101622.13;;;17.84;96.06
49979;BME280;35869;50.990;6.962;2023-05-08T19:43:32;101621.72;;;17.76;97.89
49979;BME280;35869;50.990;6.962;2023-05-08T19:48:32;101621.94;;;17.73;95.29
49979;BME280;35869;50.990;6.962;2023-05-08T19:53:33;101629.47;;;17.63;97.40
49979;BME280;35869;50.990;6.962;2023-05-08T19:58:33;101634.25;;;17.56;97.74
49979;BME280;35869;50.990;6.962;2023-05-08T20:03:33;101643.44;;;17.49;97.54
49979;BME280;35869;50.990;6.962;2023-05-08T20:08:33;101640.41;;;17.41;97.93
49979;BME280;35869;50.990;6.962;2023-05-08T20:13:34;101641.78;;;17.32;99.25
49979;BME280;35869;50.990;6.962;2023-05-08T20:18:34;101637.72;;;17.27;98.23
49979;BME280;35869;50.990;6.962;2023-05-08T20:23:34;101643.34;;;17.21;98.18
49979;BME280;35869;50.990;6.962;2023-05-08T20:28:34;101645.56;;;17.13;98.77
49979;BME280;35869;50.990;6.962;2023-05-08T20:33:35;101633.78;;;17.04;99.01
49979;BME280;35869;50.990;6.962;2023-05-08T20:38:35;101641.19;;;16.97;99.45
49979;BME280;35869;50.990;6.962;2023-05-08T20:43:35;101645.94;;;16.91;98.92
49979;BME280;35869;50.990;6.962;2023-05-08T20:48:36;101633.06;;;16.86;99.45
49979;BME280;35869;50.990;6.962;2023-05-08T20:53:36;101624.78;;;16.78;97.90
49979;BME280;35869;50.990;6.962;2023-05-08T20:58:36;101629.31;;;16.74;99.33
49979;BME280;35869;50.990;6.962;2023-05-08T21:03:36;101619.31;;;16.65;98.65
49979;BME280;35869;50.990;6.962;2023-05-08T21:08:36;101611.69;;;16.61;100.00
49979;BME280;35869;50.990;6.962;2023-05-08T21:13:37;101614.38;;;16.59;100.00
49979;BME280;35869;50.990;6.962;2023-05-08T21:18:37;101613.03;;;16.52;99.01
49979;BME280;35869;50.990;6.962;2023-05-08T21:23:37;101602.78;;;16.47;99.89
49979;BME280;35869;50.990;6.962;2023-05-08T21:28:37;101602.97;;;16.44;100.00
49979;BME280;35869;50.990;6.962;2023-05-08T21:33:38;101599.75;;;16.39;100.00
49979;BME280;35869;50.990;6.962;2023-05-08T21:38:38;101593.91;;;16.34;98.86
49979;BME280;35869;50.990;6.962;2023-05-08T21:43:38;101594.22;;;16.28;99.07
49979;BME280;35869;50.990;6.962;2023-05-08T21:48:38;101594.41;;;16.25;100.00
49979;BME280;35869;50.990;6.962;2023-05-08T21:53:38;101588.56;;;16.20;100.00
49979;BME280;35869;50.990;6.962;2023-05-08T21:58:39;101584.41;;;16.16;99.96
49979;BME280;35869;50.990;6.962;2023-05-08T22:03:39;101580.41;;;16.09;100.00
49979;BME280;35869;50.990;6.962;2023-05-08T22:08:40;101576.34;;;16.03;98.62
49979;BME280;35869;50.990;6.962;2023-05-08T22:13:40;101573.97;;;15.98;99.49
49979;BME280;35869;50.990;6.962;2023-05-08T22:18:40;101575.22;;;15.91;98.34
49979;BME280;35869;50.990;6.962;2023-05-08T22:23:40;101567.59;;;15.87;98.17
49979;BME280;35869;50.990;6.962;2023-05-08T22:28:40;101570.31;;;15.85;99.65
49979;BME280;35869;50.990;6.962;2023-05-08T22:33:41;101568.94;;;15.78;98.04
49979;BME280;35869;50.990;6.962;2023-05-08T22:38:41;101565.72;;;15.73;99.28
49979;BME280;35869;50.990;6.962;2023-05-08T22:43:41;101562.47;;;15.68;98.74
49979;BME280;35869;50.990;6.962;2023-05-08T22:48:41;101564.34;;;15.66;98.68
49979;BME280;35869;50.990;6.962;2023-05-08T22:53:42;101549.91;;;15.57;99.01
49979;BME280;35869;50.990;6.962;2023-05-08T22:58:42;101551.84;;;15.54;100.00
49979;BME280;35869;50.990;6.962;2023-05-08T23:03:42;101552.94;;;15.50;98.34
49979;BME280;35869;50.990;6.962;2023-05-08T23:08:42;101553.16;;;15.45;99.36
49979;BME280;35869;50.990;6.962;2023-05-08T23:13:43;101538.50;;;15.41;98.97
49979;BME280;35869;50.990;6.962;2023-05-08T23:18:43;101532.59;;;15.37;99.90
49979;BME280;35869;50.990;6.962;2023-05-08T23:23:43;101520.56;;;15.33;99.77
49979;BME280;35869;50.990;6.962;2023-05-08T23:28:43;101517.03;;;15.34;98.83
49979;BME280;35869;50.990;6.962;2023-05-08T23:33:43;101509.56;;;15.27;98.74
49979;BME280;35869;50.990;6.962;2023-05-08T23:38:44;101508.63;;;15.28;99.81
49979;BME280;35869;50.990;6.962;2023-05-08T23:43:44;101506.25;;;15.23;99.24
49979;BME280;35869;50.990;6.962;2023-05-08T23:48:44;101501.28;;;15.18;99.91
49979;BME280;35869;50.990;6.962;2023-05-08T23:53:45;101497.03;;;15.16;99.94
49979;BME280;35869;50.990;6.962;2023-05-08T23:58:45;101487.47;;;15.15;100.00
